Time;durP1;ratioP1;P1;durP2;ratioP2;P2;SDS_P1;SDS_P2;PMS_P1;PMS_P2;Temp;Humidity;BMP_temperature;BMP_pressure;BME280_temperature;BME280_humidity;BME280_pressure;Samples;Min_cycle;Max_cycle;Signal;HPM_P1;HPM_P2
2023/01/16 00:12:55;;;;;;;11.90;10.70;;;3.40;99.90;;;;;;2046844;68;27969;-92
2023/01/16 00:15:53;;;;;;;10.32;8.68;;;3.60;99.90;;;;;;2037553;69;21087;-91
2023/01/16 00:18:44;;;;;;;9.63;8.13;;;3.60;99.90;;;;;;2048929;69;21026;-91
2023/01/16 00:41:30;;;;;;;14.25;11.35;;;3.50;99.90;;;;;;2036608;69;22117;-91
2023/01/16 00:47:12;;;;;;;13.43;10.38;;;3.30;99.90;;;;;;1958473;72;22320;-91
2023/01/16 00:52:44;;;;;;;11.20;9.13;;;3.30;99.90;;;;;;1976115;72;22170;-92
2023/01/16 00:55:36;;;;;;;11.50;9.65;;;3.30;99.90;;;;;;1917362;75;21177;-91
2023/01/16 01:15:14;;;;;;;11.90;10.13;;;3.20;99.90;;;;;;1955902;72;22275;-91
2023/01/16 01:18:12;;;;;;;11.08;9.60;;;3.20;99.90;;;;;;1904924;75;21140;-91
2023/01/16 01:26:34;;;;;;;16.62;14.83;;;3.10;99.90;;;;;;1940451;72;28081;-91
2023/01/16 01:29:25;;;;;;;16.25;12.68;;;3.20;99.90;;;;;;1894659;75;21051;-90
2023/01/16 01:32:20;;;;;;;15.95;12.25;;;3.10;99.90;;;;;;1873771;76;21110;-91
2023/01/16 01:41:24;;;;;;;15.00;11.40;;;3.00;99.90;;;;;;1939631;72;22308;-91
2023/01/16 01:44:51;;;;;;;15.68;11.45;;;2.90;99.90;;;;;;1887880;75;21170;-92
2023/01/16 01:47:48;;;;;;;15.03;10.63;;;2.80;99.90;;;;;;1873078;76;21153;-90
2023/01/16 02:14:10;;;;;;;21.07;13.58;;;2.70;99.90;;;;;;1987824;71;22219;-90
2023/01/16 02:20:27;;;;;;;26.17;13.35;;;2.70;99.90;;;;;;1955192;72;21134;-91
2023/01/16 02:23:56;;;;;;;23.18;14.00;;;2.70;99.90;;;;;;1942210;73;21139;-89
2023/01/16 02:27:09;;;;;;;19.57;11.78;;;2.70;99.90;;;;;;1933856;73;21119;-89
2023/01/16 02:33:19;;;;;;;15.80;10.85;;;2.70;99.90;;;;;;1952383;72;22155;-89
2023/01/16 02:38:54;;;;;;;19.17;10.53;;;2.70;99.90;;;;;;1975857;72;22134;-91
2023/01/16 02:41:49;;;;;;;16.07;9.75;;;2.70;99.90;;;;;;1908761;73;21118;-89
2023/01/16 02:44:59;;;;;;;13.68;9.43;;;2.50;99.90;;;;;;1918262;75;21161;-89
2023/01/16 02:52:02;;;;;;;14.95;10.15;;;2.40;99.90;;;;;;2060374;68;22193;-90
2023/01/16 02:54:58;;;;;;;20.20;10.88;;;2.40;99.90;;;;;;2030688;70;21099;-90
2023/01/16 03:00:31;;;;;;;19.02;12.30;;;2.30;99.90;;;;;;1947530;72;22151;-91
2023/01/16 03:03:45;;;;;;;23.12;12.63;;;2.30;99.90;;;;;;1872915;75;21090;-91
2023/01/16 03:06:45;;;;;;;24.02;12.73;;;2.40;99.90;;;;;;1877210;75;21170;-90
2023/01/16 03:09:40;;;;;;;23.90;12.00;;;2.40;99.90;;;;;;1899913;75;21137;-90
2023/01/16 03:12:35;;;;;;;20.80;12.82;;;2.30;99.90;;;;;;1901366;75;21179;-89
2023/01/16 03:15:31;;;;;;;20.48;11.60;;;2.30;99.90;;;;;;1904404;75;21352;-90
2023/01/16 03:21:21;;;;;;;22.32;12.10;;;2.30;99.90;;;;;;2033374;69;22223;-91
2023/01/16 03:27:09;;;;;;;20.65;12.60;;;2.30;99.90;;;;;;1927240;72;22169;-90
2023/01/16 03:30:10;;;;;;;16.25;11.18;;;2.30;99.90;;;;;;1905112;75;21094;-91
2023/01/16 03:36:00;;;;;;;20.77;15.13;;;2.30;99.90;;;;;;1959346;72;28512;-91
2023/01/16 03:39:04;;;;;;;21.25;11.50;;;2.40;99.90;;;;;;1918105;74;21407;-90
2023/01/16 03:41:59;;;;;;;15.32;10.15;;;2.30;99.90;;;;;;1906513;74;21047;-89
2023/01/16 04:01:49;;;;;;;12.68;8.43;;;1.90;99.90;;;;;;1942281;72;22798;-90
2023/01/16 04:04:50;;;;;;;10.23;7.60;;;1.90;99.90;;;;;;1892519;75;21039;-91
2023/01/16 04:10:31;;;;;;;11.65;8.38;;;1.90;99.90;;;;;;1944193;72;22185;-90
2023/01/16 04:13:38;;;;;;;12.30;8.30;;;2.00;99.90;;;;;;1917174;75;21103;-90
2023/01/16 04:19:16;;;;;;;15.53;8.73;;;1.90;99.90;;;;;;1960007;72;22204;-91
2023/01/16 04:22:09;;;;;;;11.08;8.18;;;1.90;99.90;;;;;;1920935;73;21311;-90
2023/01/16 04:25:03;;;;;;;10.00;7.45;;;1.90;99.90;;;;;;1940543;73;21040;-90
2023/01/16 04:27:55;;;;;;;10.60;7.37;;;1.90;99.90;;;;;;1947250;73;21133;-91
2023/01/16 04:30:47;;;;;;;10.08;7.50;;;1.90;99.90;;;;;;1939851;73;21154;-92
2023/01/16 05:00:46;;;;;;;12.03;7.80;;;1.70;99.90;;;;;;1944490;72;22125;-90
2023/01/16 05:03:38;;;;;;;11.05;6.65;;;1.60;99.90;;;;;;1914339;73;21164;-90
2023/01/16 05:09:11;;;;;;;8.98;6.70;;;1.60;99.90;;;;;;1953155;72;22139;-90
2023/01/16 05:14:52;;;;;;;9.35;7.33;;;1.80;99.90;;;;;;1953648;72;22288;-91
2023/01/16 05:17:56;;;;;;;10.13;7.50;;;1.80;99.90;;;;;;1905740;75;21168;-91
2023/01/16 05:20:52;;;;;;;8.13;6.53;;;1.80;99.90;;;;;;1905831;75;21067;-90
2023/01/16 05:23:43;;;;;;;8.00;5.90;;;1.80;99.90;;;;;;1906506;75;21099;-90
2023/01/16 05:32:04;;;;;;;6.85;5.53;;;1.60;99.90;;;;;;1936529;72;22698;-90
2023/01/16 05:40:42;;;;;;;6.37;4.87;;;1.70;99.90;;;;;;1961852;72;22179;-89
2023/01/16 05:43:34;;;;;;;5.58;4.55;;;1.70;99.90;;;;;;1917490;75;21129;-91
2023/01/16 05:46:26;;;;;;;5.12;3.70;;;1.80;99.90;;;;;;1917301;75;21079;-90
2023/01/16 05:49:18;;;;;;;5.15;4.35;;;1.80;99.90;;;;;;1930173;73;21090;-91
2023/01/16 05:52:10;;;;;;;5.60;4.30;;;1.80;99.90;;;;;;1917428;75;21125;-91
2023/01/16 05:57:40;;;;;;;4.75;4.05;;;1.90;99.90;;;;;;1959669;72;22284;-90
2023/01/16 06:00:41;;;;;;;4.10;3.17;;;2.10;99.90;;;;;;1910374;74;21094;-92
2023/01/16 06:03:33;;;;;;;4.30;3.50;;;2.00;99.90;;;;;;1914619;74;21086;-90
2023/01/16 06:06:32;;;;;;;5.28;4.30;;;2.20;99.90;;;;;;1927377;74;21086;-91
2023/01/16 06:09:25;;;;;;;4.95;3.85;;;2.20;99.90;;;;;;1911871;74;21063;-90
2023/01/16 06:12:24;;;;;;;4.85;3.62;;;2.20;99.90;;;;;;1905346;75;21091;-92
2023/01/16 06:18:01;;;;;;;6.12;5.37;;;2.10;99.90;;;;;;1911916;72;28116;-91
2023/01/16 06:20:54;;;;;;;4.78;3.98;;;2.20;99.90;;;;;;1897331;74;21128;-90
2023/01/16 06:23:46;;;;;;;4.83;3.42;;;2.20;99.90;;;;;;1897631;75;21189;-91
2023/01/16 06:26:38;;;;;;;5.00;3.77;;;2.30;99.90;;;;;;1891298;75;21171;-91
2023/01/16 06:46:07;;;;;;;3.65;3.00;;;2.70;99.90;;;;;;1922579;72;22298;-89
2023/01/16 06:48:59;;;;;;;4.78;3.40;;;2.80;99.90;;;;;;1886886;75;21164;-89
2023/01/16 06:51:51;;;;;;;3.65;2.92;;;2.80;99.90;;;;;;1905737;74;21063;-90
2023/01/16 06:57:27;;;;;;;5.30;3.33;;;2.90;99.90;;;;;;1953561;72;22146;-90
2023/01/16 07:00:27;;;;;;;4.75;3.40;;;2.90;99.90;;;;;;1918763;75;21106;-91
2023/01/16 07:23:20;;;;;;;4.62;3.22;;;2.90;99.90;;;;;;1886562;75;21107;-90
2023/01/16 07:26:21;;;;;;;5.20;3.33;;;3.00;99.90;;;;;;1885620;75;21211;-90
2023/01/16 07:29:14;;;;;;;5.47;3.55;;;3.00;99.90;;;;;;1891566;75;21094;-90
2023/01/16 07:32:10;;;;;;;7.95;3.50;;;3.10;99.90;;;;;;1879142;75;21220;-91
2023/01/16 07:35:02;;;;;;;5.35;3.40;;;3.40;99.90;;;;;;1876217;75;21125;-90
2023/01/16 07:37:56;;;;;;;4.42;3.67;;;3.50;99.90;;;;;;1885400;75;21172;-90
2023/01/16 07:40:48;;;;;;;8.55;3.65;;;3.50;99.90;;;;;;1900482;75;21111;-89
2023/01/16 07:43:41;;;;;;;3.75;2.98;;;3.50;99.90;;;;;;1900069;75;21106;-92
2023/01/16 07:46:32;;;;;;;6.67;3.67;;;3.60;99.90;;;;;;1883063;75;21156;-89
2023/01/16 07:49:31;;;;;;;4.80;3.55;;;3.70;99.90;;;;;;1891358;75;21064;-88
2023/01/16 07:52:27;;;;;;;2.37;1.32;;;3.80;99.90;;;;;;1876388;75;21172;-89
2023/01/16 07:58:09;;;;;;;2.67;1.85;;;4.50;99.90;;;;;;1951820;72;22232;-89
2023/01/16 08:01:01;;;;;;;1.80;1.30;;;4.60;99.90;;;;;;1912358;73;21156;-89
2023/01/16 08:06:31;;;;;;;4.03;1.10;;;4.90;99.90;;;;;;1964508;72;22389;-89
2023/01/16 08:09:22;;;;;;;0.70;0.40;;;5.20;99.90;;;;;;1932314;73;21074;-88
2023/01/16 08:14:59;;;;;;;1.20;0.30;;;5.60;99.90;;;;;;1953098;72;22213;-90
2023/01/16 08:21:12;;;;;;;0.62;0.20;;;5.80;99.90;;;;;;2025056;69;22180;-90
2023/01/16 08:24:04;;;;;;;0.40;0.20;;;5.90;99.90;;;;;;1981584;71;21164;-89
2023/01/16 08:56:54;;;;;;;0.85;0.30;;;6.40;99.90;;;;;;1979734;71;22190;-89
2023/01/16 08:59:46;;;;;;;0.62;0.30;;;6.50;99.90;;;;;;1968169;72;21038;-90
2023/01/16 09:02:38;;;;;;;0.57;0.20;;;6.50;99.90;;;;;;2070205;69;21132;-90
2023/01/16 09:05:38;;;;;;;0.62;0.10;;;6.60;99.90;;;;;;2009115;71;21038;-90
2023/01/16 09:24:38;;;;;;;0.65;0.28;;;7.10;99.90;;;;;;1938160;72;22197;-90
2023/01/16 09:27:34;;;;;;;1.07;0.30;;;7.20;99.90;;;;;;1883492;75;21285;-90
2023/01/16 09:30:27;;;;;;;0.60;0.30;;;7.20;99.90;;;;;;1881143;75;21472;-90
2023/01/16 09:33:23;;;;;;;3.83;0.62;;;7.30;99.90;;;;;;1882637;75;21090;-89
2023/01/16 09:39:31;;;;;;;1.67;0.40;;;7.50;99.90;;;;;;2066129;68;22173;-90
2023/01/16 09:45:46;;;;;;;;;;;7.50;99.90;;;;;;2005242;70;21140;-89
2023/01/16 09:48:49;;;;;;;0.82;0.40;;;7.60;99.90;;;;;;2023364;70;20325;-89
2023/01/16 10:00:47;;;;;;;0.65;0.40;;;7.80;99.90;;;;;;1872897;75;21056;-90
2023/01/16 10:03:42;;;;;;;11.05;5.60;;;7.80;99.90;;;;;;1889434;75;21144;-89
2023/01/16 10:06:37;;;;;;;1.32;0.50;;;7.80;99.90;;;;;;1885060;75;21091;-89
2023/01/16 10:09:34;;;;;;;0.62;0.40;;;7.90;99.90;;;;;;1905224;75;21107;-89
2023/01/16 10:12:37;;;;;;;0.57;0.28;;;8.00;99.90;;;;;;1883547;75;21180;-89
2023/01/16 10:15:41;;;;;;;0.42;0.30;;;8.00;99.90;;;;;;1905635;75;21099;-90
2023/01/16 10:18:37;;;;;;;1.77;0.42;;;8.10;99.90;;;;;;1905713;75;21091;-89
2023/01/16 10:21:45;;;;;;;0.75;0.20;;;8.10;99.90;;;;;;1905024;75;21091;-89
2023/01/16 10:24:53;;;;;;;0.30;0.17;;;8.30;99.90;;;;;;1905679;75;21114;-91
2023/01/16 10:27:55;;;;;;;0.35;0.20;;;8.30;99.90;;;;;;1866219;76;21114;-91
2023/01/16 10:30:51;;;;;;;0.72;0.30;;;8.50;99.90;;;;;;1872643;76;21115;-90
2023/01/16 10:33:47;;;;;;;0.72;0.40;;;8.50;99.90;;;;;;1878346;75;21453;-90
2023/01/16 10:36:46;;;;;;;0.68;0.20;;;8.60;99.90;;;;;;1905069;75;21679;-90
2023/01/16 10:39:45;;;;;;;1.65;0.15;;;8.90;99.90;;;;;;1904937;75;21153;-91
2023/01/16 10:49:29;;;;;;;0.20;0.10;;;9.20;99.90;;;;;;1905179;75;21107;-91
2023/01/16 10:52:25;;;;;;;1.75;0.30;;;9.20;99.90;;;;;;1888560;75;21106;-90
2023/01/16 10:55:41;;;;;;;0.85;0.33;;;9.20;99.90;;;;;;1873773;76;21140;-89
2023/01/16 10:58:41;;;;;;;1.47;0.35;;;9.40;99.90;;;;;;1887726;75;21094;-90
2023/01/16 11:01:40;;;;;;;0.33;0.10;;;9.20;99.90;;;;;;1894148;75;21098;-89
2023/01/16 11:04:37;;;;;;;1.17;0.53;;;9.10;99.90;;;;;;1899841;75;21168;-89
2023/01/16 11:07:39;;;;;;;1.55;0.10;;;9.10;99.90;;;;;;1880431;75;21115;-90
2023/01/16 11:10:31;;;;;;;0.60;0.30;;;9.20;99.90;;;;;;1894252;75;21107;-90
2023/01/16 11:20:02;;;;;;;0.62;0.20;;;9.40;99.90;;;;;;1871891;76;21102;-90
2023/01/16 11:22:58;;;;;;;0.80;0.30;;;9.40;99.90;;;;;;1885942;75;21150;-89
2023/01/16 11:25:58;;;;;;;0.55;0.30;;;9.40;99.90;;;;;;1895032;75;21099;-89
2023/01/16 11:28:57;;;;;;;1.55;0.35;;;9.50;99.90;;;;;;1901307;75;21133;-89
2023/01/16 11:31:54;;;;;;;1.35;0.28;;;9.50;99.90;;;;;;1906011;75;21124;-89
2023/01/16 11:34:48;;;;;;;0.42;0.30;;;9.60;99.90;;;;;;1885443;75;21115;-89
2023/01/16 11:37:40;;;;;;;0.80;0.30;;;9.70;99.90;;;;;;1872467;77;21131;-90
2023/01/16 11:40:46;;;;;;;1.00;0.30;;;9.80;99.90;;;;;;1872107;76;21562;-88
2023/01/16 11:47:11;;;;;;;1.27;0.37;;;9.90;99.90;;;;;;1883399;75;21104;-90
2023/01/16 11:50:15;;;;;;;0.40;0.23;;;9.80;99.90;;;;;;1874907;75;21164;-90
2023/01/16 11:53:03;;;;;;;1.40;0.23;;;9.80;99.90;;;;;;1872296;77;21366;-89
2023/01/16 11:58:54;;;;;;;0.93;0.30;;;10.00;99.90;;;;;;1955506;72;22154;-90
2023/01/16 12:02:19;;;;;;;1.40;0.30;;;10.20;99.90;;;;;;1896155;75;21136;-90
2023/01/16 12:08:53;;;;;;;2.20;0.30;;;10.60;99.90;;;;;;1913368;75;21079;-91
2023/01/16 12:11:57;;;;;;;1.65;0.62;;;10.70;99.90;;;;;;1899551;75;21086;-89
2023/01/16 12:14:52;;;;;;;1.85;0.40;;;10.80;99.90;;;;;;1896183;75;21090;-89
2023/01/16 12:18:09;;;;;;;1.07;0.30;;;10.80;99.90;;;;;;1913988;75;21099;-89
2023/01/16 12:21:05;;;;;;;2.05;0.30;;;10.90;99.90;;;;;;1892894;75;21148;-89
2023/01/16 12:24:20;;;;;;;1.60;0.37;;;11.00;99.90;;;;;;1917326;75;21121;-89
2023/01/16 12:30:07;;;;;;;1.00;0.57;;;11.00;99.90;;;;;;1944846;72;22190;-91
2023/01/16 12:49:18;;;;;;;1.15;0.30;;;11.10;99.90;;;;;;1958951;72;22449;-90
2023/01/16 12:52:18;;;;;;;0.47;0.20;;;11.20;99.90;;;;;;1888486;75;21168;-89
2023/01/16 12:55:19;;;;;;;1.30;0.40;;;11.30;99.90;;;;;;1885040;75;21208;-89
2023/01/16 12:58:21;;;;;;;1.00;0.40;;;11.30;99.90;;;;;;1874542;75;21217;-89
2023/01/16 13:01:21;;;;;;;0.98;0.30;;;11.30;99.90;;;;;;1878008;75;21153;-89
2023/01/16 13:04:16;;;;;;;0.78;0.10;;;11.10;99.90;;;;;;1903167;75;21200;-89
2023/01/16 13:07:12;;;;;;;1.35;0.30;;;11.00;99.90;;;;;;1893445;75;21475;-89
2023/01/16 13:13:25;;;;;;;2.05;0.40;;;10.90;99.90;;;;;;1906987;75;21036;-89
2023/01/16 13:19:41;;;;;;;2.62;0.30;;;10.80;99.90;;;;;;1991597;71;22118;-88
2023/01/16 13:22:50;;;;;;;1.98;0.28;;;10.80;99.90;;;;;;2022418;70;21138;-89
2023/01/16 13:25:45;;;;;;;1.20;0.30;;;10.80;99.90;;;;;;2005204;70;21022;-89
2023/01/16 13:28:44;;;;;;;1.00;0.30;;;10.80;99.90;;;;;;2032184;70;21057;-89
2023/01/16 13:31:39;;;;;;;0.70;0.20;;;10.80;99.90;;;;;;2008305;70;21178;-89
2023/01/16 13:34:41;;;;;;;2.15;0.30;;;10.70;99.90;;;;;;2015645;70;21200;-88
2023/01/16 13:37:57;;;;;;;0.95;0.20;;;10.70;99.90;;;;;;2010874;70;21066;-89
2023/01/16 13:41:03;;;;;;;2.25;0.42;;;10.50;99.90;;;;;;2017064;70;21093;-89
2023/01/16 13:47:11;;;;;;;1.47;0.30;;;10.40;99.90;;;;;;2032333;70;21021;-90
2023/01/16 13:50:07;;;;;;;1.35;0.30;;;10.40;99.90;;;;;;2000009;70;21065;-89
2023/01/16 13:53:06;;;;;;;0.50;0.10;;;10.40;99.90;;;;;;1994968;71;21030;-91
2023/01/16 13:56:26;;;;;;;0.20;0.20;;;10.50;99.90;;;;;;1994840;72;21039;-89
2023/01/16 13:59:30;;;;;;;0.65;0.35;;;10.50;99.90;;;;;;2020144;70;21135;-88
2023/01/16 14:02:29;;;;;;;0.28;0.10;;;10.50;99.90;;;;;;2018641;70;21114;-88
2023/01/16 14:05:44;;;;;;;1.72;0.20;;;10.50;99.90;;;;;;2031818;70;21053;-89
2023/01/16 14:09:04;;;;;;;0.40;0.20;;;10.50;99.90;;;;;;2013638;70;21068;-89
2023/01/16 14:12:20;;;;;;;0.10;0.10;;;10.40;99.90;;;;;;1996027;72;21033;-88
2023/01/16 14:18:40;;;;;;;1.55;0.13;;;10.30;99.90;;;;;;2017594;70;21041;-89
2023/01/16 14:21:43;;;;;;;0.68;0.30;;;10.20;99.90;;;;;;2021312;70;21022;-90
2023/01/16 14:24:43;;;;;;;0.70;0.20;;;10.20;99.90;;;;;;2022665;70;21093;-89
2023/01/16 14:27:47;;;;;;;3.58;0.53;;;10.10;99.90;;;;;;2016744;70;21086;-89
2023/01/16 14:30:40;;;;;;;1.37;0.30;;;10.10;99.90;;;;;;2003585;70;21073;-89
2023/01/16 14:33:36;;;;;;;0.82;0.25;;;10.00;99.90;;;;;;2029621;70;21050;-88
2023/01/16 14:36:29;;;;;;;0.95;0.28;;;10.00;99.90;;;;;;2038342;70;21086;-89
2023/01/16 14:39:42;;;;;;;1.77;0.40;;;10.00;99.90;;;;;;2039639;70;21085;-88
2023/01/16 14:56:36;;;;;;;2.80;0.28;;;9.60;99.90;;;;;;2005257;70;21083;-89
2023/01/16 14:59:31;;;;;;;0.93;0.50;;;9.60;99.90;;;;;;2001394;72;21418;-88
2023/01/16 15:02:35;;;;;;;4.28;0.30;;;9.60;99.90;;;;;;2028656;70;21045;-90
2023/01/16 15:05:49;;;;;;;1.65;0.30;;;9.60;99.90;;;;;;2001867;72;21128;-88
2023/01/16 15:08:31;;;;;;;3.37;0.50;;;9.60;99.90;;;;;;2001708;72;21152;-89
2023/01/16 15:11:33;;;;;;;3.37;0.70;;;9.60;99.90;;;;;;2016451;70;21030;-91
2023/01/16 15:14:28;;;;;;;3.37;1.00;;;9.50;99.90;;;;;;2005001;70;21076;-91
2023/01/16 15:23:48;;;;;;;7.25;2.02;;;9.30;99.90;;;;;;2002431;70;21175;-89
2023/01/16 15:26:51;;;;;;;2.55;0.85;;;9.20;99.90;;;;;;2017253;71;21173;-88
2023/01/16 15:29:56;;;;;;;2.95;1.40;;;9.10;99.90;;;;;;2015244;70;21090;-89
2023/01/16 15:33:43;;;;;;;1.40;0.82;;;9.10;99.90;;;;;;1996796;70;21113;-89
2023/01/16 15:35:59;;;;;;;3.47;1.62;;;9.10;99.90;;;;;;2014063;70;21026;-89
2023/01/16 15:38:54;;;;;;;3.60;1.20;;;9.10;99.90;;;;;;1994542;72;21121;-89
2023/01/16 15:48:43;;;;;;;1.95;0.40;;;9.00;99.90;;;;;;1995010;72;21139;-89
2023/01/16 15:51:39;;;;;;;1.20;0.65;;;9.00;99.90;;;;;;1945894;73;21136;-90
2023/01/16 15:54:31;;;;;;;2.00;0.93;;;9.00;99.90;;;;;;1995610;72;21158;-90
2023/01/16 15:57:41;;;;;;;1.30;0.80;;;8.90;99.90;;;;;;1994620;72;21044;-90
2023/01/16 16:03:59;;;;;;;1.10;0.60;;;8.80;99.90;;;;;;1950427;72;22147;-90
2023/01/16 16:07:15;;;;;;;2.10;0.60;;;8.80;99.90;;;;;;1904885;75;21050;-91
2023/01/16 16:11:51;;;;;;;1.02;0.45;;;8.80;99.90;;;;;;1930243;74;21102;-90
2023/01/16 16:13:09;;;;;;;1.22;0.50;;;8.70;99.90;;;;;;1915443;74;21177;-89
2023/01/16 16:19:36;;;;;;;3.70;0.50;;;8.50;99.90;;;;;;1905000;74;21172;-89
2023/01/16 16:25:45;;;;;;;1.50;0.90;;;8.40;99.90;;;;;;1906126;75;21076;-89
2023/01/16 16:28:59;;;;;;;1.75;0.80;;;8.30;99.90;;;;;;1905457;75;21128;-89
2023/01/16 16:31:54;;;;;;;1.17;0.80;;;8.30;99.90;;;;;;1905860;75;21107;-89
2023/01/16 16:34:53;;;;;;;1.92;0.60;;;8.20;99.90;;;;;;1937939;74;21661;-89
2023/01/16 16:37:47;;;;;;;1.05;0.65;;;8.10;99.90;;;;;;1904346;75;21106;-89
2023/01/16 16:40:42;;;;;;;1.12;0.47;;;8.10;99.90;;;;;;1904993;75;21087;-89
2023/01/16 16:43:49;;;;;;;1.65;0.65;;;8.00;99.90;;;;;;1906474;74;21204;-91
2023/01/16 16:46:42;;;;;;;1.12;0.60;;;8.00;99.90;;;;;;1905357;75;21161;-90
2023/01/16 16:49:39;;;;;;;1.22;0.80;;;8.00;99.90;;;;;;1905302;75;21469;-90
2023/01/16 16:52:39;;;;;;;1.50;0.80;;;7.90;99.90;;;;;;1904998;75;21263;-89
2023/01/16 16:55:34;;;;;;;0.80;0.55;;;7.80;99.90;;;;;;1905909;75;21106;-91
2023/01/16 16:58:28;;;;;;;1.75;0.80;;;7.80;99.90;;;;;;1905260;75;21176;-90
2023/01/16 17:01:25;;;;;;;1.07;0.70;;;7.80;99.90;;;;;;1905299;75;21152;-89
2023/01/16 17:04:25;;;;;;;1.12;0.65;;;7.80;99.90;;;;;;1904982;75;21122;-89
2023/01/16 17:07:26;;;;;;;1.95;0.60;;;7.90;99.90;;;;;;1905994;75;21156;-89
2023/01/16 17:10:19;;;;;;;2.22;0.80;;;7.80;99.90;;;;;;1905951;75;21059;-89
2023/01/16 17:13:12;;;;;;;2.80;0.70;;;7.80;99.90;;;;;;1905589;75;21110;-88
2023/01/16 17:20:11;;;;;;;2.80;0.70;;;7.80;99.90;;;;;;1923619;74;22138;-90
2023/01/16 17:23:06;;;;;;;1.57;0.70;;;7.80;99.90;;;;;;1883358;76;21062;-88
2023/01/16 17:25:57;;;;;;;0.90;0.60;;;7.90;99.90;;;;;;1880888;76;21088;-89
2023/01/16 17:28:48;;;;;;;0.98;0.62;;;7.90;99.90;;;;;;1882221;76;21098;-89
2023/01/16 17:31:48;;;;;;;1.05;0.68;;;7.90;99.90;;;;;;1881601;76;21176;-89
2023/01/16 17:34:41;;;;;;;3.42;2.15;;;7.80;99.90;;;;;;1879041;75;21098;-90
2023/01/16 17:37:33;;;;;;;6.30;4.15;;;7.70;99.90;;;;;;1921863;75;21054;-89
2023/01/16 17:40:30;;;;;;;;;;;7.60;99.90;;;;;;1886992;76;21686;-89
2023/01/16 17:46:36;;;;;;;4.58;2.70;;;7.60;99.90;;;;;;1933697;73;21184;-89
2023/01/16 17:49:28;;;;;;;1.92;1.10;;;7.70;99.90;;;;;;1927613;74;21112;-89
2023/01/16 17:52:27;;;;;;;1.80;1.30;;;7.70;99.90;;;;;;1920561;75;21106;-90
2023/01/16 17:58:48;;;;;;;2.37;1.20;;;7.70;99.90;;;;;;1921459;75;21104;-89
2023/01/16 18:01:35;;;;;;;3.40;1.22;;;7.70;99.90;;;;;;1930952;73;21097;-89
2023/01/16 18:07:15;;;;;;;6.85;3.35;;;7.70;99.90;;;;;;1951932;72;22123;-92
2023/01/16 18:10:09;;;;;;;5.37;3.30;;;7.60;99.90;;;;;;1943868;73;21188;-91
2023/01/16 18:19:26;;;;;;;2.20;1.40;;;7.50;99.90;;;;;;1917510;75;21087;-89
2023/01/16 18:22:18;;;;;;;2.52;1.20;;;7.50;99.90;;;;;;1917822;75;21106;-89
2023/01/16 18:25:10;;;;;;;2.15;1.10;;;7.40;99.90;;;;;;1918697;73;21236;-90
2023/01/16 18:28:09;;;;;;;2.15;1.07;;;7.40;99.90;;;;;;1916712;75;21162;-89
2023/01/16 18:31:07;;;;;;;2.62;1.40;;;7.40;99.90;;;;;;1917016;75;21104;-89
2023/01/16 18:34:06;;;;;;;1.75;1.20;;;7.40;99.90;;;;;;1939565;73;21109;-89
2023/01/16 18:36:57;;;;;;;2.08;1.32;;;7.30;99.90;;;;;;1916909;75;21094;-89
2023/01/16 19:04:45;;;;;;;2.52;1.75;;;7.00;99.90;;;;;;1885754;73;21159;-90
2023/01/16 19:07:43;;;;;;;4.15;1.92;;;7.00;99.90;;;;;;1883528;75;21103;-93
2023/01/16 19:10:42;;;;;;;6.22;2.62;;;7.00;99.90;;;;;;1882922;75;21317;-91
2023/01/16 19:13:39;;;;;;;2.92;2.00;;;6.90;99.90;;;;;;1879072;75;21186;-89
2023/01/16 19:16:48;;;;;;;5.57;2.60;;;6.90;99.90;;;;;;1877286;75;21098;-91
2023/01/16 19:19:40;;;;;;;3.77;2.15;;;6.90;99.90;;;;;;1831482;78;21118;-91
2023/01/16 19:22:32;;;;;;;3.17;1.90;;;6.90;99.90;;;;;;1879563;75;21546;-90
2023/01/16 19:28:24;;;;;;;4.60;2.65;;;6.80;99.90;;;;;;1960551;72;22308;-93
2023/01/16 19:31:22;;;;;;;3.20;2.30;;;6.70;99.90;;;;;;1918417;74;21091;-94
2023/01/16 19:34:18;;;;;;;4.40;2.75;;;6.60;99.90;;;;;;1910017;74;21106;-93
2023/01/16 19:37:33;;;;;;;4.05;3.10;;;6.60;99.90;;;;;;1904218;75;21101;-94
2023/01/16 19:48:10;;;;;;;2.77;1.92;;;6.60;99.90;;;;;;1906563;75;21164;-93
2023/01/16 19:51:11;;;;;;;3.72;2.40;;;6.60;99.90;;;;;;1906702;75;21059;-94
2023/01/16 19:54:16;;;;;;;4.17;2.10;;;6.70;99.90;;;;;;1903796;75;21099;-94
2023/01/16 19:57:09;;;;;;;2.75;2.17;;;6.80;99.90;;;;;;1904524;75;21201;-95
2023/01/16 20:00:44;;;;;;;4.00;2.50;;;6.90;99.90;;;;;;1904964;75;21099;-94
2023/01/16 20:03:28;;;;;;;3.15;1.80;;;6.80;99.90;;;;;;1905255;75;21172;-94
2023/01/16 20:06:24;;;;;;;2.98;1.62;;;6.70;99.90;;;;;;1905865;75;21072;-96
2023/01/16 20:09:34;;;;;;;3.08;1.75;;;6.80;99.90;;;;;;1905930;75;21071;-96
2023/01/16 20:12:43;;;;;;;2.12;1.40;;;6.90;99.90;;;;;;1905914;75;21106;-96
2023/01/16 20:15:45;;;;;;;2.20;1.67;;;6.90;99.90;;;;;;1905591;75;21213;-95
2023/01/16 20:18:37;;;;;;;4.92;2.20;;;6.90;99.90;;;;;;1905720;75;21276;-94
2023/01/16 20:21:31;;;;;;;3.40;2.12;;;7.00;99.90;;;;;;1906291;75;21853;-93
2023/01/16 20:24:24;;;;;;;3.20;2.17;;;7.00;99.90;;;;;;1905780;75;21094;-94
2023/01/16 20:27:17;;;;;;;2.92;1.70;;;7.00;99.90;;;;;;1908215;75;21209;-92
2023/01/16 20:30:13;;;;;;;3.05;1.92;;;7.00;99.90;;;;;;1912757;74;21688;-93
2023/01/16 20:33:28;;;;;;;3.72;2.45;;;7.10;99.90;;;;;;1913712;75;21113;-94
2023/01/16 22:34:47;;;;;;;8.15;5.53;;;5.80;99.90;;;;;;1977392;72;22561;-90
2023/01/16 22:37:39;;;;;;;6.47;4.95;;;5.80;99.90;;;;;;1922188;73;21076;-90
2023/01/16 22:40:37;;;;;;;8.83;5.35;;;5.80;99.90;;;;;;1916966;75;21410;-90
2023/01/16 22:46:57;;;;;;;7.17;5.30;;;5.70;99.90;;;;;;1916830;75;21114;-92
2023/01/16 22:49:49;;;;;;;7.80;5.10;;;5.60;99.90;;;;;;1916361;75;21087;-90
2023/01/16 22:52:46;;;;;;;9.35;5.70;;;5.50;99.90;;;;;;1928914;73;21110;-90
2023/01/16 22:55:39;;;;;;;6.42;4.97;;;5.50;99.90;;;;;;1920289;73;21196;-90
2023/01/16 22:58:40;;;;;;;7.67;5.28;;;5.60;99.90;;;;;;1917933;75;21181;-91
2023/01/16 23:01:32;;;;;;;7.17;5.37;;;5.60;99.90;;;;;;1935061;73;21231;-90
2023/01/16 23:04:27;;;;;;;7.00;5.45;;;5.60;99.90;;;;;;1917063;75;21173;-90
2023/01/16 23:07:25;;;;;;;6.35;4.90;;;5.60;99.90;;;;;;1917312;75;21074;-90
2023/01/16 23:10:52;;;;;;;6.35;4.50;;;5.60;99.90;;;;;;1939722;73;21140;-90
2023/01/16 23:13:48;;;;;;;5.90;4.20;;;5.70;99.90;;;;;;1916818;75;21167;-90
2023/01/16 23:16:46;;;;;;;5.85;4.30;;;5.80;99.90;;;;;;1917175;73;21185;-92
2023/01/16 23:19:39;;;;;;;7.45;4.97;;;5.90;99.90;;;;;;1917872;75;21066;-90
2023/01/16 23:22:33;;;;;;;7.95;4.22;;;6.00;99.90;;;;;;1917102;75;21307;-90
2023/01/16 23:25:28;;;;;;;4.92;3.95;;;6.00;99.90;;;;;;1917124;75;21216;-90
2023/01/16 23:28:21;;;;;;;6.87;4.12;;;6.00;99.90;;;;;;1918192;75;21179;-91
2023/01/16 23:31:14;;;;;;;6.97;4.10;;;6.10;99.90;;;;;;1929429;73;21106;-90
2023/01/16 23:34:09;;;;;;;5.42;3.70;;;6.10;99.90;;;;;;1916897;73;21110;-91
2023/01/16 23:37:01;;;;;;;5.97;3.40;;;6.20;99.90;;;;;;1867383;77;21086;-90
2023/01/16 23:39:57;;;;;;;4.22;2.75;;;6.20;99.90;;;;;;1881990;76;21118;-91
2023/01/16 23:49:36;;;;;;;4.55;2.40;;;6.10;99.90;;;;;;1994472;71;22418;-90
2023/01/16 23:52:34;;;;;;;3.62;2.37;;;6.10;99.90;;;;;;1934052;73;21051;-90
2023/01/16 23:55:29;;;;;;;4.47;2.70;;;6.10;99.90;;;;;;1995679;70;21090;-90
2023/01/16 23:58:21;;;;;;;3.17;2.15;;;6.20;99.90;;;;;;2011919;70;21153;-90
